Time;durP1;ratioP1;P1;durP2;ratioP2;P2;SDS_P1;SDS_P2;PMS_P1;PMS_P2;Temp;Humidity;BMP_temperature;BMP_pressure;BME280_temperature;BME280_humidity;BME280_pressure;Samples;Min_cycle;Max_cycle;Signal;HPM_P1;HPM_P2
2020/12/15 00:00:11;;;;;;;54.35;33.85;;;5.10;93.30;;;;;;2081831;28;20048;-72
2020/12/15 00:01:12;;;;;;;55.20;34.33;;;5.10;93.20;;;;;;2081790;28;20453;-72
2020/12/15 00:02:12;;;;;;;51.67;33.80;;;5.10;93.20;;;;;;2081432;28;20037;-73
2020/12/15 00:03:13;;;;;;;54.40;33.60;;;5.10;93.20;;;;;;2081796;28;20084;-73
2020/12/15 00:04:14;;;;;;;53.10;33.60;;;5.20;93.20;;;;;;2081746;28;20037;-71
2020/12/15 00:05:15;;;;;;;55.60;34.83;;;5.20;93.20;;;;;;2081253;28;20033;-72
2020/12/15 00:06:16;;;;;;;52.53;33.90;;;5.20;93.20;;;;;;2081048;28;20087;-72
2020/12/15 00:07:17;;;;;;;53.65;34.38;;;5.10;93.20;;;;;;2081023;28;20032;-72
2020/12/15 00:08:18;;;;;;;52.75;33.17;;;5.20;93.20;;;;;;2081765;28;20491;-71
2020/12/15 00:09:18;;;;;;;54.25;33.80;;;5.20;93.20;;;;;;2080957;28;20045;-71
2020/12/15 00:10:19;;;;;;;51.78;32.90;;;5.10;93.20;;;;;;2081097;28;20057;-73
2020/12/15 00:11:20;;;;;;;54.95;33.38;;;5.10;93.10;;;;;;2081316;28;20676;-72
2020/12/15 00:12:20;;;;;;;52.78;32.97;;;5.10;93.20;;;;;;2080864;28;20029;-74
2020/12/15 00:13:21;;;;;;;53.28;32.70;;;5.20;93.20;;;;;;2081011;28;20033;-72
2020/12/15 00:14:22;;;;;;;53.72;33.63;;;5.20;93.20;;;;;;2081624;28;20041;-72
2020/12/15 00:15:23;;;;;;;53.78;33.60;;;5.20;93.20;;;;;;2080886;28;20104;-72
2020/12/15 00:16:23;;;;;;;53.28;33.60;;;5.20;93.20;;;;;;2080980;28;20065;-72
2020/12/15 00:17:24;;;;;;;54.15;34.50;;;5.10;93.20;;;;;;2080350;28;20101;-72
2020/12/15 00:18:25;;;;;;;50.75;32.08;;;5.20;93.20;;;;;;2080962;28;20036;-72
2020/12/15 00:19:26;;;;;;;49.10;31.55;;;5.20;93.20;;;;;;2081487;28;20025;-73
2020/12/15 00:20:27;;;;;;;54.60;33.42;;;5.10;93.20;;;;;;2081553;28;20029;-72
2020/12/15 00:21:28;;;;;;;53.45;33.05;;;5.10;93.20;;;;;;2081256;28;20467;-72
2020/12/15 00:22:29;;;;;;;54.83;34.53;;;5.20;93.20;;;;;;2081649;28;20043;-72
2020/12/15 00:23:29;;;;;;;52.38;33.33;;;5.10;93.20;;;;;;2081504;28;20044;-73
2020/12/15 00:24:30;;;;;;;51.47;32.80;;;5.10;93.20;;;;;;2080705;28;20052;-72
2020/12/15 00:25:31;;;;;;;52.35;32.03;;;5.10;93.30;;;;;;2080929;28;20044;-72
2020/12/15 00:26:32;;;;;;;51.08;31.98;;;5.10;93.30;;;;;;2081395;28;20112;-72
2020/12/15 00:27:32;;;;;;;51.67;31.70;;;5.10;93.30;;;;;;2080920;28;20030;-72
2020/12/15 00:28:33;;;;;;;49.03;31.55;;;5.10;93.30;;;;;;2081427;28;20033;-72
2020/12/15 00:29:35;;;;;;;51.13;31.88;;;5.10;93.30;;;;;;2081531;28;20032;-73
2020/12/15 00:30:36;;;;;;;52.63;32.63;;;5.10;93.20;;;;;;2081414;28;20639;-71
2020/12/15 00:31:37;;;;;;;50.28;31.30;;;5.20;93.30;;;;;;2077436;28;20025;-72
2020/12/15 00:32:37;;;;;;;48.97;31.08;;;5.20;93.20;;;;;;2072545;28;20026;-72
2020/12/15 00:33:38;;;;;;;47.33;30.45;;;5.20;93.10;;;;;;2072852;28;20053;-72
2020/12/15 00:34:38;;;;;;;49.45;30.25;;;5.20;93.10;;;;;;2072764;28;20056;-72
2020/12/15 00:35:39;;;;;;;50.13;31.08;;;5.20;93.10;;;;;;2072815;28;20029;-72
2020/12/15 00:36:40;;;;;;;49.85;31.27;;;5.20;93.10;;;;;;2073262;28;20069;-73
2020/12/15 00:37:41;;;;;;;51.05;31.73;;;5.20;93.10;;;;;;2072228;28;20172;-72
2020/12/15 00:38:41;;;;;;;48.00;30.55;;;5.20;93.00;;;;;;2072557;28;20161;-72
2020/12/15 00:39:42;;;;;;;45.97;29.67;;;5.20;93.10;;;;;;2080753;28;20033;-72
2020/12/15 00:40:42;;;;;;;46.35;30.88;;;5.20;93.10;;;;;;2073169;28;20030;-72
2020/12/15 00:41:49;;;;;;;47.17;29.83;;;5.20;93.00;;;;;;2072234;28;20084;-72
2020/12/15 00:42:50;;;;;;;46.20;29.58;;;5.20;92.90;;;;;;2072563;28;20153;-72
2020/12/15 00:43:50;;;;;;;50.45;31.42;;;5.30;92.80;;;;;;2073241;28;20037;-72
2020/12/15 00:44:51;;;;;;;49.00;31.02;;;5.30;92.80;;;;;;2073220;28;20053;-72
2020/12/15 00:45:52;;;;;;;46.90;30.35;;;5.30;92.70;;;;;;2072567;28;20113;-73
2020/12/15 00:46:52;;;;;;;45.78;28.55;;;5.30;92.70;;;;;;2072136;28;20521;-71
2020/12/15 00:47:53;;;;;;;49.28;30.67;;;5.30;92.70;;;;;;2080566;28;20104;-72
2020/12/15 00:48:54;;;;;;;46.58;30.40;;;5.30;92.70;;;;;;2080885;28;20028;-72
2020/12/15 00:49:55;;;;;;;43.75;29.13;;;5.20;92.70;;;;;;2073187;28;20474;-72
2020/12/15 00:50:56;;;;;;;50.65;31.45;;;5.20;92.80;;;;;;2073113;28;20013;-71
2020/12/15 00:51:56;;;;;;;47.42;29.88;;;5.20;92.70;;;;;;2072231;28;20048;-73
2020/12/15 00:52:57;;;;;;;44.83;28.65;;;5.20;92.70;;;;;;2072713;28;20401;-73
2020/12/15 00:53:58;;;;;;;45.85;29.33;;;5.20;92.80;;;;;;2073928;28;20180;-74
2020/12/15 00:54:59;;;;;;;52.22;31.63;;;5.20;92.70;;;;;;2072866;28;20137;-72
2020/12/15 00:56:04;;;;;;;48.33;30.42;;;5.20;92.70;;;;;;2072575;28;20112;-73
2020/12/15 00:57:05;;;;;;;46.97;30.15;;;5.20;92.70;;;;;;2082467;28;20029;-73
2020/12/15 00:58:06;;;;;;;45.25;28.73;;;5.20;92.70;;;;;;2080684;28;20453;-73
2020/12/15 00:59:07;;;;;;;47.08;30.02;;;5.30;92.70;;;;;;2072511;28;20030;-72
2020/12/15 01:00:10;;;;;;;45.28;29.35;;;5.30;92.60;;;;;;2081049;28;20425;-75
2020/12/15 01:01:11;;;;;;;49.55;31.00;;;5.20;92.60;;;;;;2080724;28;20044;-73
2020/12/15 01:02:12;;;;;;;50.17;30.73;;;5.30;92.60;;;;;;2072366;28;20030;-72
2020/12/15 01:03:13;;;;;;;46.25;29.83;;;5.30;92.60;;;;;;2072431;28;20022;-72
2020/12/15 01:04:14;;;;;;;45.80;29.48;;;5.30;92.50;;;;;;2072576;28;20056;-72
2020/12/15 01:05:16;;;;;;;48.78;30.10;;;5.30;92.50;;;;;;2072483;28;20196;-73
2020/12/15 01:06:19;;;;;;;47.63;29.88;;;5.30;92.40;;;;;;2080925;28;20032;-74
2020/12/15 01:07:21;;;;;;;47.95;30.73;;;5.30;92.50;;;;;;2079986;28;20033;-72
2020/12/15 01:08:22;;;;;;;46.47;30.30;;;5.30;92.40;;;;;;2080376;28;20052;-73
2020/12/15 01:09:23;;;;;;;49.03;30.88;;;5.30;92.40;;;;;;2080526;28;20490;-73
2020/12/15 01:10:23;;;;;;;47.78;30.10;;;5.30;92.30;;;;;;2080602;28;20105;-73
2020/12/15 01:11:29;;;;;;;46.22;29.05;;;5.30;92.30;;;;;;2088369;28;20443;-73
2020/12/15 01:12:31;;;;;;;47.75;29.55;;;5.30;92.40;;;;;;2080328;28;20034;-73
2020/12/15 01:13:32;;;;;;;47.22;30.20;;;5.30;92.40;;;;;;2072338;28;20060;-73
2020/12/15 01:14:33;;;;;;;48.90;29.75;;;5.30;92.40;;;;;;2064351;28;20113;-73
2020/12/15 01:15:34;;;;;;;44.42;28.60;;;5.30;92.30;;;;;;2064502;28;20026;-73
2020/12/15 01:16:39;;;;;;;44.17;29.35;;;5.30;92.30;;;;;;2072628;28;20033;-73
2020/12/15 01:17:40;;;;;;;46.55;29.17;;;5.30;92.30;;;;;;2080141;28;20021;-73
2020/12/15 01:18:41;;;;;;;54.50;32.58;;;5.30;92.40;;;;;;2080639;28;20040;-73
2020/12/15 01:19:47;;;;;;;50.10;30.90;;;5.30;92.40;;;;;;2073333;28;20116;-72
2020/12/15 01:20:47;;;;;;;45.15;29.23;;;5.30;92.40;;;;;;2080690;28;20424;-73
2020/12/15 01:21:48;;;;;;;46.63;29.17;;;5.20;92.40;;;;;;2080173;28;20026;-73
2020/12/15 01:22:54;;;;;;;45.00;28.85;;;5.20;92.40;;;;;;2072864;28;20437;-73
2020/12/15 01:24:05;;;;;;;48.20;30.35;;;5.20;92.40;;;;;;2073656;28;20034;-73
2020/12/15 01:25:16;;;;;;;48.47;29.13;;;5.20;92.40;;;;;;2082125;28;20041;-73
2020/12/15 01:26:30;;;;;;;50.67;30.67;;;5.20;92.40;;;;;;2087489;28;20099;-73
2020/12/15 01:27:31;;;;;;;44.17;28.30;;;5.20;92.40;;;;;;2080250;28;20165;-73
2020/12/15 01:28:38;;;;;;;45.28;29.40;;;5.20;92.40;;;;;;2073183;28;20040;-73
2020/12/15 01:29:40;;;;;;;43.17;28.50;;;5.20;92.40;;;;;;2072747;28;20108;-72
2020/12/15 01:30:42;;;;;;;44.28;28.38;;;5.20;92.40;;;;;;2072642;28;20030;-72
2020/12/15 01:31:55;;;;;;;44.15;28.55;;;5.20;92.80;;;;;;2074926;28;20136;-72
2020/12/15 01:32:59;;;;;;;43.80;28.25;;;5.20;92.40;;;;;;2073936;28;20778;-72
2020/12/15 01:34:19;;;;;;;44.72;28.27;;;5.20;92.40;;;;;;2073852;28;20038;-73
2020/12/15 01:35:29;;;;;;;44.70;28.75;;;5.20;92.50;;;;;;2073179;28;20745;-73
2020/12/15 01:36:31;;;;;;;43.35;28.58;;;5.20;92.60;;;;;;2064476;28;20042;-73
2020/12/15 01:37:36;;;;;;;48.33;29.38;;;5.10;92.50;;;;;;2071780;28;20084;-72
2020/12/15 01:38:38;;;;;;;45.28;28.67;;;5.10;92.60;;;;;;2064212;28;20036;-73
2020/12/15 01:39:40;;;;;;;44.13;28.70;;;5.10;92.60;;;;;;2072416;28;20385;-73
2020/12/15 01:40:51;;;;;;;46.20;29.33;;;5.10;92.70;;;;;;2072153;28;20021;-72
2020/12/15 01:41:52;;;;;;;48.47;29.50;;;5.10;92.70;;;;;;2072087;28;20786;-73
2020/12/15 01:42:54;;;;;;;41.38;27.52;;;5.10;92.70;;;;;;2072124;28;20085;-73
2020/12/15 01:43:57;;;;;;;47.03;28.73;;;5.10;92.60;;;;;;2072278;28;20026;-72
2020/12/15 01:45:00;;;;;;;51.15;30.75;;;5.20;92.60;;;;;;2072227;28;20022;-72
2020/12/15 01:46:06;;;;;;;43.90;28.50;;;5.10;92.50;;;;;;2064774;28;20030;-73
2020/12/15 01:47:13;;;;;;;42.15;28.00;;;5.10;92.50;;;;;;2063626;28;20113;-73
2020/12/15 01:48:14;;;;;;;42.47;27.55;;;5.10;92.50;;;;;;2065182;28;20045;-73
2020/12/15 01:49:22;;;;;;;42.30;27.52;;;5.10;92.60;;;;;;2072064;28;20053;-73
2020/12/15 01:50:28;;;;;;;43.45;27.67;;;5.10;92.60;;;;;;2072829;28;20459;-73
2020/12/15 01:51:29;;;;;;;44.75;28.50;;;5.10;92.60;;;;;;2063797;28;20089;-72
2020/12/15 01:52:36;;;;;;;43.38;28.15;;;5.10;92.70;;;;;;2065694;28;20089;-74
2020/12/15 01:53:37;;;;;;;48.17;29.95;;;5.10;92.70;;;;;;2079853;28;20762;-73
2020/12/15 01:54:40;;;;;;;48.03;29.58;;;5.10;92.80;;;;;;2071942;28;20026;-72
2020/12/15 01:55:41;;;;;;;43.88;28.80;;;5.00;92.80;;;;;;2072219;28;20148;-72
2020/12/15 01:56:45;;;;;;;45.28;28.60;;;5.10;92.80;;;;;;2071982;28;20022;-72
2020/12/15 01:57:53;;;;;;;45.55;28.52;;;5.10;92.80;;;;;;2073213;28;20032;-72
2020/12/15 01:59:03;;;;;;;46.75;28.52;;;5.10;92.80;;;;;;2072928;28;20104;-72
2020/12/15 02:00:05;;;;;;;45.70;28.95;;;5.10;92.80;;;;;;2080506;28;20032;-73
2020/12/15 02:01:18;;;;;;;46.13;28.73;;;5.00;92.80;;;;;;2086743;28;20029;-73
2020/12/15 02:02:22;;;;;;;42.38;27.77;;;5.10;92.80;;;;;;2080103;28;20509;-73
2020/12/15 02:03:28;;;;;;;44.92;28.17;;;5.00;92.80;;;;;;2072732;28;20513;-73
2020/12/15 02:04:49;;;;;;;46.22;28.15;;;5.00;92.80;;;;;;2080540;28;20037;-73
2020/12/15 02:05:49;;;;;;;45.33;29.17;;;5.10;92.80;;;;;;2080872;28;20109;-72
2020/12/15 02:06:52;;;;;;;45.17;29.25;;;5.10;92.90;;;;;;2080307;28;20014;-74
2020/12/15 02:07:54;;;;;;;43.15;28.77;;;5.00;92.90;;;;;;2080133;28;20535;-73
2020/12/15 02:08:56;;;;;;;46.75;30.15;;;5.00;92.90;;;;;;2079938;28;20427;-73
2020/12/15 02:09:58;;;;;;;43.60;29.50;;;5.00;93.00;;;;;;2080409;28;20068;-73
2020/12/15 02:11:18;;;;;;;43.75;28.35;;;5.10;93.00;;;;;;2086002;28;20048;-73
2020/12/15 02:12:19;;;;;;;44.63;28.90;;;5.10;93.00;;;;;;2080123;28;20069;-73
2020/12/15 02:13:22;;;;;;;43.38;28.80;;;5.00;92.90;;;;;;2072012;28;20466;-73
2020/12/15 02:14:23;;;;;;;47.42;29.23;;;5.10;92.90;;;;;;2080153;28;20037;-74
2020/12/15 02:15:24;;;;;;;47.08;30.73;;;5.10;92.90;;;;;;2072083;28;20056;-73
2020/12/15 02:16:33;;;;;;;45.90;29.27;;;5.10;92.90;;;;;;2065903;28;20042;-75
2020/12/15 02:17:34;;;;;;;48.17;30.80;;;5.10;93.00;;;;;;2079897;28;20061;-73
2020/12/15 02:18:49;;;;;;;47.97;30.15;;;5.10;92.90;;;;;;2086486;28;20471;-74
2020/12/15 02:20:06;;;;;;;47.65;30.50;;;5.10;92.90;;;;;;2079977;28;20123;-73
2020/12/15 02:21:10;;;;;;;51.97;31.45;;;5.10;92.90;;;;;;2074441;28;20029;-73
2020/12/15 02:22:35;;;;;;;48.17;30.63;;;5.10;92.90;;;;;;2083242;28;20061;-73
2020/12/15 02:23:35;;;;;;;50.70;31.13;;;5.20;92.80;;;;;;2088283;28;20148;-72
2020/12/15 02:24:49;;;;;;;52.40;31.88;;;5.10;93.20;;;;;;2079818;28;20029;-73
2020/12/15 02:25:50;;;;;;;54.97;33.03;;;5.20;92.80;;;;;;2072009;28;20022;-73
2020/12/15 02:26:52;;;;;;;47.92;31.33;;;5.20;92.80;;;;;;2071232;28;20117;-73
2020/12/15 02:27:56;;;;;;;47.03;30.10;;;5.10;92.80;;;;;;2072576;28;20026;-73
2020/12/15 02:28:58;;;;;;;46.72;30.63;;;5.10;92.80;;;;;;2079944;28;20150;-73
2020/12/15 02:29:59;;;;;;;48.83;31.13;;;5.10;92.80;;;;;;2071914;28;20449;-73
2020/12/15 02:31:01;;;;;;;48.55;31.67;;;5.10;92.80;;;;;;2055994;28;20094;-73
2020/12/15 02:32:12;;;;;;;50.45;31.95;;;5.10;93.30;;;;;;2058175;28;20671;-73
2020/12/15 02:33:17;;;;;;;49.88;31.90;;;5.10;92.90;;;;;;2070487;28;20416;-74
2020/12/15 02:34:20;;;;;;;51.75;32.47;;;5.10;93.00;;;;;;2079878;28;20033;-73
2020/12/15 02:35:21;;;;;;;52.90;32.83;;;5.10;93.00;;;;;;2079879;28;20034;-73
2020/12/15 02:36:22;;;;;;;50.97;32.10;;;5.10;93.00;;;;;;2071801;28;20107;-73
2020/12/15 02:37:42;;;;;;;53.30;33.28;;;5.10;93.00;;;;;;2079498;28;20021;-73
2020/12/15 02:38:44;;;;;;;49.30;31.75;;;5.00;93.10;;;;;;2071676;28;20017;-73
2020/12/15 02:39:45;;;;;;;51.00;31.92;;;5.00;93.00;;;;;;2071776;28;20061;-73
2020/12/15 02:40:59;;;;;;;53.22;33.17;;;5.00;93.00;;;;;;2070024;28;20022;-73
2020/12/15 02:42:16;;;;;;;53.28;32.60;;;5.00;93.10;;;;;;2073845;28;20026;-75
2020/12/15 02:43:16;;;;;;;51.75;33.65;;;5.00;93.20;;;;;;2079933;28;20029;-74
2020/12/15 02:44:23;;;;;;;53.08;33.20;;;5.00;93.20;;;;;;2063720;28;20022;-73
2020/12/15 02:45:32;;;;;;;54.33;33.45;;;5.00;93.20;;;;;;2065298;28;20033;-73
2020/12/15 02:46:35;;;;;;;51.38;33.25;;;5.00;93.10;;;;;;2065238;28;20030;-73
2020/12/15 02:47:36;;;;;;;52.88;33.88;;;5.00;93.10;;;;;;2055184;28;20514;-74
2020/12/15 02:48:37;;;;;;;50.22;32.80;;;5.00;93.10;;;;;;2063640;28;20065;-73
2020/12/15 02:49:38;;;;;;;50.70;33.05;;;5.00;93.10;;;;;;2079918;28;20030;-74
2020/12/15 02:50:39;;;;;;;53.55;33.28;;;5.00;93.10;;;;;;2071603;28;20029;-74
2020/12/15 02:51:51;;;;;;;52.83;33.55;;;5.00;93.10;;;;;;2056669;28;20031;-73
2020/12/15 02:53:05;;;;;;;53.30;33.13;;;5.00;93.10;;;;;;2073443;28;20030;-73
2020/12/15 02:54:11;;;;;;;50.45;32.88;;;5.00;93.10;;;;;;2071113;28;20489;-74
2020/12/15 02:55:11;;;;;;;57.70;35.15;;;5.00;93.00;;;;;;2071610;28;20553;-74
2020/12/15 02:56:25;;;;;;;52.50;34.20;;;5.00;93.10;;;;;;2078823;28;20444;-73
2020/12/15 02:57:26;;;;;;;54.67;34.47;;;5.00;93.10;;;;;;2074011;28;20075;-73
2020/12/15 02:58:28;;;;;;;52.95;34.60;;;4.90;93.10;;;;;;2072055;28;20030;-73
2020/12/15 02:59:31;;;;;;;60.55;36.70;;;4.90;93.20;;;;;;2071823;28;20056;-73
2020/12/15 03:00:34;;;;;;;55.00;34.30;;;4.90;93.30;;;;;;2072024;28;20026;-74
2020/12/15 03:01:39;;;;;;;51.80;33.25;;;4.90;93.40;;;;;;2071430;28;20037;-73
2020/12/15 03:02:40;;;;;;;54.85;35.17;;;4.90;93.40;;;;;;2072097;28;20053;-74
2020/12/15 03:03:41;;;;;;;54.97;35.08;;;4.80;93.40;;;;;;2079820;28;20467;-74
2020/12/15 03:05:03;;;;;;;54.15;34.35;;;4.80;93.40;;;;;;2084690;28;20057;-74
2020/12/15 03:06:05;;;;;;;59.35;36.13;;;4.90;93.40;;;;;;2079232;28;20029;-74
2020/12/15 03:07:05;;;;;;;55.05;34.55;;;4.80;93.40;;;;;;2071143;28;20465;-74
2020/12/15 03:08:22;;;;;;;53.20;33.38;;;4.80;93.40;;;;;;2073860;28;20026;-74
2020/12/15 03:09:25;;;;;;;56.08;34.65;;;4.80;93.40;;;;;;2079948;28;20037;-73
2020/12/15 03:10:30;;;;;;;58.10;35.17;;;4.80;93.50;;;;;;2079845;28;20037;-74
2020/12/15 03:11:33;;;;;;;49.58;32.45;;;4.80;93.50;;;;;;2079655;28;20029;-74
2020/12/15 03:12:41;;;;;;;50.63;32.55;;;4.80;93.50;;;;;;2079742;28;20037;-73
2020/12/15 03:13:44;;;;;;;52.97;33.45;;;4.80;93.40;;;;;;2071702;28;20030;-74
2020/12/15 03:14:45;;;;;;;49.90;32.97;;;4.80;93.40;;;;;;2071413;28;20045;-72
2020/12/15 03:15:50;;;;;;;63.53;36.58;;;4.80;93.40;;;;;;2080380;28;20468;-73
2020/12/15 03:16:57;;;;;;;52.80;33.38;;;4.80;93.40;;;;;;2079217;28;20091;-72
2020/12/15 03:18:00;;;;;;;53.20;33.40;;;4.80;93.40;;;;;;2079651;28;20436;-75
2020/12/15 03:19:01;;;;;;;52.45;32.72;;;4.80;93.40;;;;;;2071319;28;20030;-74
2020/12/15 03:20:03;;;;;;;51.95;32.95;;;4.80;93.40;;;;;;2071661;28;20033;-74
2020/12/15 03:21:09;;;;;;;53.33;34.60;;;4.80;93.30;;;;;;2072361;28;20036;-74
2020/12/15 03:22:11;;;;;;;55.75;34.00;;;4.80;93.30;;;;;;2079471;28;20544;-74
2020/12/15 03:23:21;;;;;;;56.85;34.55;;;4.80;93.30;;;;;;2080079;28;20068;-73
2020/12/15 03:24:22;;;;;;;57.53;34.97;;;4.80;93.30;;;;;;2079458;28;20025;-73
2020/12/15 03:25:25;;;;;;;55.90;34.00;;;4.80;93.30;;;;;;2079559;28;20037;-73
2020/12/15 03:26:31;;;;;;;56.58;34.08;;;4.80;93.30;;;;;;2080420;28;20041;-73
2020/12/15 03:27:37;;;;;;;56.42;34.05;;;4.80;93.50;;;;;;2079189;28;20029;-74
2020/12/15 03:28:42;;;;;;;51.72;32.42;;;4.80;93.10;;;;;;2080090;28;20112;-74
2020/12/15 03:29:45;;;;;;;53.67;33.55;;;4.90;93.40;;;;;;2079427;28;20029;-73
2020/12/15 03:30:47;;;;;;;54.47;34.63;;;4.90;93.00;;;;;;2079631;28;20501;-74
2020/12/15 03:31:47;;;;;;;56.97;35.15;;;4.90;92.90;;;;;;2074009;28;20447;-73
2020/12/15 03:32:55;;;;;;;55.78;34.55;;;4.90;92.80;;;;;;2056302;28;20034;-74
2020/12/15 03:33:56;;;;;;;54.45;32.97;;;4.90;92.80;;;;;;2056403;28;20102;-73
2020/12/15 03:34:57;;;;;;;53.03;33.88;;;4.90;92.80;;;;;;2071264;28;20060;-73
2020/12/15 03:35:58;;;;;;;53.65;33.75;;;4.90;92.80;;;;;;2071337;28;20039;-74
2020/12/15 03:36:59;;;;;;;51.88;32.65;;;4.90;92.80;;;;;;2070975;28;20026;-73
2020/12/15 03:38:00;;;;;;;53.35;33.55;;;4.90;92.80;;;;;;2063371;28;20580;-73
2020/12/15 03:39:11;;;;;;;57.42;34.40;;;4.90;93.10;;;;;;2057912;28;20555;-74
2020/12/15 03:40:12;;;;;;;56.22;33.60;;;4.90;92.70;;;;;;2063148;28;20061;-73
2020/12/15 03:41:31;;;;;;;53.72;32.90;;;4.90;92.70;;;;;;2071459;28;20034;-74
2020/12/15 03:42:50;;;;;;;51.70;32.35;;;4.90;92.70;;;;;;2079609;28;20055;-73
2020/12/15 03:43:52;;;;;;;55.15;33.95;;;4.90;93.00;;;;;;2071535;28;20026;-74
2020/12/15 03:44:59;;;;;;;54.40;33.13;;;4.90;92.60;;;;;;2063934;28;20026;-74
2020/12/15 03:45:59;;;;;;;54.90;33.80;;;4.90;92.60;;;;;;2063338;28;20613;-75
2020/12/15 03:47:00;;;;;;;54.55;34.17;;;4.90;92.60;;;;;;2070804;28;20030;-73
2020/12/15 03:48:01;;;;;;;56.17;34.33;;;4.90;92.70;;;;;;2063281;28;20085;-73
2020/12/15 03:49:06;;;;;;;53.65;33.90;;;4.90;92.70;;;;;;2063821;28;20532;-74
2020/12/15 03:50:11;;;;;;;54.65;33.75;;;4.80;92.70;;;;;;2063947;28;20035;-73
2020/12/15 03:51:13;;;;;;;57.33;34.60;;;4.80;92.80;;;;;;2071375;28;20030;-74
2020/12/15 03:52:32;;;;;;;58.00;34.70;;;4.80;92.90;;;;;;2077228;28;20277;-74
2020/12/15 03:53:42;;;;;;;61.20;35.60;;;4.70;92.90;;;;;;2071417;28;20104;-74
2020/12/15 03:54:43;;;;;;;58.70;35.42;;;4.70;92.90;;;;;;2071207;28;20026;-73
2020/12/15 03:55:53;;;;;;;57.10;34.13;;;4.70;92.90;;;;;;2078743;28;20045;-74
2020/12/15 03:56:54;;;;;;;58.17;34.78;;;4.70;92.90;;;;;;2071911;28;20444;-74
2020/12/15 03:57:55;;;;;;;52.53;33.30;;;4.70;93.00;;;;;;2079601;28;20033;-74
2020/12/15 03:59:01;;;;;;;55.45;34.00;;;4.60;93.00;;;;;;2071197;28;20041;-74
2020/12/15 04:00:05;;;;;;;53.65;34.80;;;4.60;92.90;;;;;;2072526;28;20018;-75
2020/12/15 04:01:13;;;;;;;55.45;34.65;;;4.60;93.00;;;;;;2079573;28;20123;-73
2020/12/15 04:02:14;;;;;;;56.22;35.53;;;4.60;93.00;;;;;;2072137;28;20030;-73
2020/12/15 04:03:15;;;;;;;55.78;35.22;;;4.60;93.10;;;;;;2071331;28;20065;-73
2020/12/15 04:04:30;;;;;;;55.67;34.58;;;4.60;93.10;;;;;;2081553;28;20049;-73
2020/12/15 04:05:31;;;;;;;56.00;34.97;;;4.60;93.20;;;;;;2087728;28;20029;-73
2020/12/15 04:06:34;;;;;;;55.35;34.75;;;4.50;93.20;;;;;;2079610;28;20036;-74
2020/12/15 04:07:44;;;;;;;55.33;34.40;;;4.50;93.20;;;;;;2079185;28;20025;-74
2020/12/15 04:08:46;;;;;;;54.83;34.67;;;4.50;93.20;;;;;;2071554;28;20107;-74
2020/12/15 04:09:48;;;;;;;55.75;35.70;;;4.60;93.30;;;;;;2079797;28;20072;-74
2020/12/15 04:10:52;;;;;;;57.10;35.47;;;4.50;93.30;;;;;;2079637;28;20029;-74
2020/12/15 04:11:58;;;;;;;58.83;36.70;;;4.50;93.20;;;;;;2071873;28;20025;-74
2020/12/15 04:12:59;;;;;;;57.55;35.53;;;4.50;93.20;;;;;;2071353;28;20030;-73
2020/12/15 04:14:06;;;;;;;55.22;35.05;;;4.50;93.20;;;;;;2080333;28;20064;-74
2020/12/15 04:15:07;;;;;;;57.78;36.10;;;4.50;93.20;;;;;;2079373;28;20137;-72
2020/12/15 04:16:08;;;;;;;56.22;35.55;;;4.50;93.30;;;;;;2071373;28;20033;-73
2020/12/15 04:17:14;;;;;;;58.88;37.08;;;4.60;93.30;;;;;;2072378;28;20076;-73
2020/12/15 04:18:18;;;;;;;58.50;35.67;;;4.60;93.20;;;;;;2073436;28;20425;-73
2020/12/15 04:19:19;;;;;;;58.42;36.13;;;4.60;93.20;;;;;;2072769;28;20034;-73
2020/12/15 04:20:21;;;;;;;58.63;36.53;;;4.60;93.20;;;;;;2081057;28;20045;-73
2020/12/15 04:21:22;;;;;;;58.60;36.72;;;4.60;93.10;;;;;;2080661;28;20064;-74
2020/12/15 04:22:25;;;;;;;61.97;36.00;;;4.60;93.20;;;;;;2073047;28;20726;-74
2020/12/15 04:23:28;;;;;;;58.50;36.45;;;4.60;93.10;;;;;;2081230;28;20030;-73
2020/12/15 04:24:29;;;;;;;58.88;35.58;;;4.60;93.10;;;;;;2080919;28;20513;-74
2020/12/15 04:25:49;;;;;;;56.85;36.20;;;4.60;93.10;;;;;;2081334;28;20076;-74
2020/12/15 04:26:50;;;;;;;56.30;34.40;;;4.60;93.00;;;;;;2080851;28;20025;-73
2020/12/15 04:27:50;;;;;;;55.42;34.38;;;4.60;93.00;;;;;;2080952;28;20584;-73
2020/12/15 04:28:51;;;;;;;55.38;35.88;;;4.60;93.00;;;;;;2072747;28;20026;-74
2020/12/15 04:29:53;;;;;;;59.03;36.30;;;4.60;93.00;;;;;;2072712;28;20104;-74
2020/12/15 04:30:57;;;;;;;56.45;35.85;;;4.60;93.00;;;;;;2073018;28;20069;-73
2020/12/15 04:31:58;;;;;;;58.45;36.80;;;4.60;93.00;;;;;;2065684;28;20482;-74
2020/12/15 04:33:00;;;;;;;57.13;36.20;;;4.60;93.00;;;;;;2064853;28;20138;-74
2020/12/15 04:34:11;;;;;;;56.35;35.33;;;4.60;93.00;;;;;;2074324;28;20046;-74
2020/12/15 04:35:12;;;;;;;55.53;34.35;;;4.60;93.20;;;;;;2073131;28;20057;-74
2020/12/15 04:36:15;;;;;;;54.65;34.63;;;4.60;92.80;;;;;;2073417;28;20579;-73
2020/12/15 04:37:17;;;;;;;58.03;36.90;;;4.60;92.80;;;;;;2064698;28;20030;-73
2020/12/15 04:38:25;;;;;;;57.33;35.72;;;4.60;92.80;;;;;;2066215;28;20081;-74
2020/12/15 04:39:31;;;;;;;57.65;36.28;;;4.60;92.90;;;;;;2073510;28;20045;-74
2020/12/15 04:40:35;;;;;;;58.92;36.05;;;4.60;92.90;;;;;;2073252;28;20806;-72
2020/12/15 04:41:36;;;;;;;56.65;35.67;;;4.60;92.90;;;;;;2072970;28;20074;-72
2020/12/15 04:42:37;;;;;;;59.63;36.75;;;4.50;92.90;;;;;;2072971;28;20030;-72
2020/12/15 04:43:41;;;;;;;57.95;35.33;;;4.50;92.90;;;;;;2064640;28;20144;-72
2020/12/15 04:44:43;;;;;;;59.05;36.35;;;4.50;92.90;;;;;;2065019;28;20174;-73
2020/12/15 04:45:49;;;;;;;61.45;36.47;;;4.50;92.90;;;;;;2057009;28;20077;-74
2020/12/15 04:47:15;;;;;;;58.78;36.10;;;4.60;92.80;;;;;;2066094;28;20543;-74
2020/12/15 04:48:25;;;;;;;57.42;34.38;;;4.60;92.80;;;;;;2072618;28;20034;-74
2020/12/15 04:50:07;;;;;;;57.05;35.22;;;4.60;92.70;;;;;;2066986;28;20045;-74
2020/12/15 04:51:25;;;;;;;59.13;34.95;;;4.60;92.70;;;;;;2069081;28;20492;-73
2020/12/15 04:52:54;;;;;;;57.42;34.83;;;4.60;92.70;;;;;;2065936;28;20066;-73
2020/12/15 04:54:16;;;;;;;60.40;35.67;;;4.70;92.70;;;;;;2072989;28;20046;-73
2020/12/15 04:55:32;;;;;;;57.45;34.28;;;4.60;92.60;;;;;;2072391;28;20030;-73
2020/12/15 04:56:37;;;;;;;55.15;33.97;;;4.60;92.60;;;;;;2072527;28;20030;-73
2020/12/15 04:57:57;;;;;;;58.63;34.90;;;4.60;92.50;;;;;;2070467;28;20022;-75
2020/12/15 04:58:59;;;;;;;57.88;34.88;;;4.70;92.50;;;;;;2064439;28;20030;-74
2020/12/15 05:00:08;;;;;;;56.55;34.50;;;4.60;92.50;;;;;;2065918;28;20038;-74
2020/12/15 05:01:33;;;;;;;56.53;34.30;;;4.70;92.60;;;;;;2069218;28;20034;-73
2020/12/15 05:02:51;;;;;;;59.03;35.85;;;4.70;92.50;;;;;;2064522;28;20057;-73
2020/12/15 05:03:52;;;;;;;57.78;35.22;;;4.70;92.50;;;;;;2065363;28;20602;-72
2020/12/15 05:04:54;;;;;;;57.85;35.83;;;4.70;92.50;;;;;;2072543;28;20054;-72
2020/12/15 05:05:56;;;;;;;58.72;35.78;;;4.60;92.50;;;;;;2072273;28;20056;-72
2020/12/15 05:07:03;;;;;;;56.58;35.55;;;4.60;92.60;;;;;;2071942;28;20041;-72
2020/12/15 05:08:21;;;;;;;58.38;35.03;;;4.70;92.60;;;;;;2069386;28;20592;-74
2020/12/15 05:09:38;;;;;;;59.28;35.67;;;4.60;92.60;;;;;;2072553;28;20100;-72
2020/12/15 05:10:39;;;;;;;60.28;37.10;;;4.60;92.50;;;;;;2064330;28;20023;-72
2020/12/15 05:12:09;;;;;;;58.10;35.10;;;4.70;92.60;;;;;;2055648;28;20042;-72
2020/12/15 05:13:15;;;;;;;61.15;36.13;;;4.70;92.50;;;;;;2064401;28;20054;-72
2020/12/15 05:14:16;;;;;;;57.40;35.20;;;4.70;92.50;;;;;;2064425;28;20157;-72
2020/12/15 05:15:18;;;;;;;61.40;36.88;;;4.60;92.50;;;;;;2064198;28;20382;-73
2020/12/15 05:16:21;;;;;;;60.35;35.92;;;4.60;92.40;;;;;;2056933;28;20047;-73
2020/12/15 05:17:32;;;;;;;59.55;35.92;;;4.60;92.50;;;;;;2064837;28;20486;-72
2020/12/15 05:18:47;;;;;;;59.22;35.30;;;4.60;92.50;;;;;;2071411;28;20161;-72
2020/12/15 05:19:59;;;;;;;59.05;35.05;;;4.60;92.50;;;;;;2056345;28;20042;-73
2020/12/15 05:21:17;;;;;;;59.78;35.35;;;4.60;92.50;;;;;;2058696;28;20030;-72
2020/12/15 05:22:21;;;;;;;57.85;35.13;;;4.60;92.60;;;;;;2064368;28;20034;-72
2020/12/15 05:23:24;;;;;;;59.95;36.03;;;4.60;92.70;;;;;;2064447;28;20033;-73
2020/12/15 05:24:29;;;;;;;57.72;35.20;;;4.60;92.60;;;;;;2072287;28;20049;-72
2020/12/15 05:25:34;;;;;;;60.25;36.10;;;4.60;92.60;;;;;;2072377;28;20034;-73
2020/12/15 05:26:41;;;;;;;60.83;35.38;;;4.60;92.60;;;;;;2071564;28;20025;-72
2020/12/15 05:27:43;;;;;;;59.30;35.28;;;4.60;92.60;;;;;;2071903;28;20018;-73
2020/12/15 05:29:16;;;;;;;58.22;34.47;;;4.50;92.70;;;;;;2070914;28;20028;-73
2020/12/15 05:30:33;;;;;;;58.38;34.78;;;4.50;92.70;;;;;;2072179;28;20033;-73
2020/12/15 05:31:59;;;;;;;58.80;35.47;;;4.50;92.70;;;;;;2055356;28;20506;-72
2020/12/15 05:33:30;;;;;;;58.65;35.42;;;4.50;92.80;;;;;;2064186;28;20035;-73